Terminal Aerodrome Forecast
Issued by NWS Sterling, VA

Current Version | Previous Version | Graphics & Text | Print | Product List | Glossary On
Versions: 1 2 3 4 5 6 7 8 9 10 11 12 13 14 15 16 17 18 19 20 21 22
563
FTUS41 KLWX 220859 AAA
TAFIAD
TAF AMD
KIAD 220859Z 2209/2312 23005KT P6SM BKN060 BKN100
     FM221100 29007KT P6SM SCT060 BKN100
     FM221300 32015G27KT P6SM FEW060
     FM230000 33010KT P6SM SKC
     FM230300 33005KT P6SM SKC=

USA.gov is the U.S. government's official web portal to all federal, state and local government web resources and services.